sensor_id;sensor_type;location;lat;lon;timestamp;pressure;altitude;pressure_sealevel;temperature;humidity
68141;BME280;54941;52.220;104.306;2024-03-23T00:55:10;96688.97;;;-2.55;42.28
68141;BME280;54941;52.220;104.306;2024-03-23T00:57:36;96679.06;;;-2.16;42.17
68141;BME280;54941;52.220;104.306;2024-03-23T01:00:03;96682.19;;;-1.99;42.49
68141;BME280;54941;52.220;104.306;2024-03-23T01:02:31;96694.91;;;-2.07;41.27
68141;BME280;54941;52.220;104.306;2024-03-23T01:04:57;96679.38;;;-0.24;38.90
68141;BME280;54941;52.220;104.306;2024-03-23T01:07:23;96677.63;;;-0.25;37.54
68141;BME280;54941;52.220;104.306;2024-03-23T01:09:51;96680.63;;;-0.44;38.96
68141;BME280;54941;52.220;104.306;2024-03-23T01:12:18;96664.75;;;0.94;35.05
68141;BME280;54941;52.220;104.306;2024-03-23T01:14:44;96683.22;;;-0.10;36.44
68141;BME280;54941;52.220;104.306;2024-03-23T01:17:10;96666.13;;;0.77;36.35
68141;BME280;54941;52.220;104.306;2024-03-23T01:19:36;96681.06;;;-0.26;36.26
68141;BME280;54941;52.220;104.306;2024-03-23T01:22:03;96677.56;;;-0.28;36.74
68141;BME280;54941;52.220;104.306;2024-03-23T01:24:29;96691.97;;;-1.62;37.70
68141;BME280;54941;52.220;104.306;2024-03-23T01:26:57;96683.84;;;0.16;36.85
68141;BME280;54941;52.220;104.306;2024-03-23T01:29:23;96671.53;;;0.86;34.59
68141;BME280;54941;52.220;104.306;2024-03-23T01:31:49;96674.28;;;1.86;32.70
68141;BME280;54941;52.220;104.306;2024-03-23T01:34:16;96666.53;;;1.90;32.39
68141;BME280;54941;52.220;104.306;2024-03-23T01:36:42;96694.22;;;-0.53;34.77
68141;BME280;54941;52.220;104.306;2024-03-23T01:39:08;96690.94;;;0.23;34.70
68141;BME280;54941;52.220;104.306;2024-03-23T01:41:35;96700.69;;;-1.30;36.11
68141;BME280;54941;52.220;104.306;2024-03-23T01:44:05;96701.38;;;-1.07;36.33
68141;BME280;54941;52.220;104.306;2024-03-23T01:46:32;96674.53;;;1.51;34.09
68141;BME280;54941;52.220;104.306;2024-03-23T01:48:58;96692.06;;;-0.36;35.64
68141;BME280;54941;52.220;104.306;2024-03-23T01:51:26;96676.97;;;0.57;35.15
68141;BME280;54941;52.220;104.306;2024-03-23T01:53:53;96693.19;;;0.10;34.61
68141;BME280;54941;52.220;104.306;2024-03-23T01:56:21;96678.75;;;1.94;32.44
68141;BME280;54941;52.220;104.306;2024-03-23T01:58:47;96686.69;;;0.27;34.33
68141;BME280;54941;52.220;104.306;2024-03-23T02:01:15;96692.41;;;-0.89;36.38
68141;BME280;54941;52.220;104.306;2024-03-23T02:03:43;96695.44;;;-0.06;35.68
68141;BME280;54941;52.220;104.306;2024-03-23T02:06:15;96676.53;;;1.66;33.51
68141;BME280;54941;52.220;104.306;2024-03-23T02:08:44;96671.25;;;2.13;32.47
68141;BME280;54941;52.220;104.306;2024-03-23T02:11:10;96676.41;;;1.60;32.95
68141;BME280;54941;52.220;104.306;2024-03-23T02:13:36;96673.81;;;1.14;33.92
68141;BME280;54941;52.220;104.306;2024-03-23T02:16:04;96689.88;;;0.15;34.67
68141;BME280;54941;52.220;104.306;2024-03-23T02:18:32;96661.63;;;1.59;33.57
68141;BME280;54941;52.220;104.306;2024-03-23T02:20:58;96670.69;;;2.96;30.84
68141;BME280;54941;52.220;104.306;2024-03-23T02:23:26;96685.09;;;0.34;34.97
68141;BME280;54941;52.220;104.306;2024-03-23T02:25:53;96688.94;;;0.12;35.65
68141;BME280;54941;52.220;104.306;2024-03-23T02:28:19;96681.75;;;0.78;35.16
68141;BME280;54941;52.220;104.306;2024-03-23T02:30:46;96680.84;;;1.17;33.94
68141;BME280;54941;52.220;104.306;2024-03-23T02:33:12;96683.34;;;0.70;34.18
68141;BME280;54941;52.220;104.306;2024-03-23T02:35:39;96687.09;;;0.08;35.40
68141;BME280;54941;52.220;104.306;2024-03-23T02:38:05;96673.84;;;2.11;31.40
68141;BME280;54941;52.220;104.306;2024-03-23T02:40:33;96683.28;;;1.09;33.38
68141;BME280;54941;52.220;104.306;2024-03-23T02:42:59;96684.19;;;1.57;32.34
68141;BME280;54941;52.220;104.306;2024-03-23T02:45:26;96674.03;;;0.81;34.06
68141;BME280;54941;52.220;104.306;2024-03-23T02:47:52;96667.97;;;1.26;34.21
68141;BME280;54941;52.220;104.306;2024-03-23T02:50:18;96669.41;;;2.64;30.85
68141;BME280;54941;52.220;104.306;2024-03-23T02:52:45;96661.84;;;2.22;31.20
68141;BME280;54941;52.220;104.306;2024-03-23T02:55:11;96657.78;;;3.90;29.95
68141;BME280;54941;52.220;104.306;2024-03-23T02:57:39;96663.78;;;2.36;30.83
68141;BME280;54941;52.220;104.306;2024-03-23T03:00:07;96662.94;;;2.38;31.27
68141;BME280;54941;52.220;104.306;2024-03-23T03:02:34;96675.59;;;0.73;34.24
68141;BME280;54941;52.220;104.306;2024-03-23T03:05:00;96664.72;;;0.52;35.18
68141;BME280;54941;52.220;104.306;2024-03-23T03:07:27;96666.19;;;1.70;33.02
68141;BME280;54941;52.220;104.306;2024-03-23T03:09:53;96664.41;;;1.20;33.69
68141;BME280;54941;52.220;104.306;2024-03-23T03:12:19;96661.56;;;1.54;32.95
68141;BME280;54941;52.220;104.306;2024-03-23T03:14:47;96664.69;;;0.50;35.37
68141;BME280;54941;52.220;104.306;2024-03-23T03:17:13;96665.19;;;-0.04;36.34
68141;BME280;54941;52.220;104.306;2024-03-23T03:19:40;96644.56;;;2.30;32.59
68141;BME280;54941;52.220;104.306;2024-03-23T03:22:06;96649.66;;;0.36;34.48
68141;BME280;54941;52.220;104.306;2024-03-23T03:24:32;96635.31;;;2.52;32.05
68141;BME280;54941;52.220;104.306;2024-03-23T03:26:59;96632.78;;;2.57;30.94
68141;BME280;54941;52.220;104.306;2024-03-23T03:29:25;96639.13;;;2.77;31.42
68141;BME280;54941;52.220;104.306;2024-03-23T03:31:53;96626.84;;;4.49;28.81
68141;BME280;54941;52.220;104.306;2024-03-23T03:34:19;96644.84;;;1.93;32.73
68141;BME280;54941;52.220;104.306;2024-03-23T03:36:45;96642.06;;;1.32;33.58
68141;BME280;54941;52.220;104.306;2024-03-23T03:39:11;96636.63;;;0.75;34.36
68141;BME280;54941;52.220;104.306;2024-03-23T03:41:38;96632.31;;;1.69;32.95
68141;BME280;54941;52.220;104.306;2024-03-23T03:44:04;96624.56;;;1.73;33.42
68141;BME280;54941;52.220;104.306;2024-03-23T03:46:30;96620.31;;;1.77;33.12
68141;BME280;54941;52.220;104.306;2024-03-23T03:48:58;96624.97;;;3.28;30.74
68141;BME280;54941;52.220;104.306;2024-03-23T03:51:24;96627.91;;;1.16;34.13
68141;BME280;54941;52.220;104.306;2024-03-23T03:53:51;96618.13;;;3.42;30.81
68141;BME280;54941;52.220;104.306;2024-03-23T03:56:17;96628.19;;;1.83;32.92
68141;BME280;54941;52.220;104.306;2024-03-23T03:58:43;96624.84;;;3.16;30.05
68141;BME280;54941;52.220;104.306;2024-03-23T04:01:10;96632.25;;;1.64;32.97
68141;BME280;54941;52.220;104.306;2024-03-23T04:03:36;96631.84;;;1.41;34.41
68141;BME280;54941;52.220;104.306;2024-03-23T04:06:04;96625.97;;;1.53;34.71
68141;BME280;54941;52.220;104.306;2024-03-23T04:08:30;96624.88;;;0.94;33.83
68141;BME280;54941;52.220;104.306;2024-03-23T04:10:57;96622.09;;;1.83;33.73
68141;BME280;54941;52.220;104.306;2024-03-23T04:13:23;96610.31;;;2.04;32.74
68141;BME280;54941;52.220;104.306;2024-03-23T04:15:53;96597.31;;;2.70;31.88
68141;BME280;54941;52.220;104.306;2024-03-23T04:18:19;96606.56;;;0.91;34.62
68141;BME280;54941;52.220;104.306;2024-03-23T04:20:45;96597.78;;;1.82;33.68
68141;BME280;54941;52.220;104.306;2024-03-23T04:23:13;96590.41;;;2.10;31.16
68141;BME280;54941;52.220;104.306;2024-03-23T04:25:39;96603.94;;;1.86;33.66
68141;BME280;54941;52.220;104.306;2024-03-23T04:28:06;96610.84;;;0.45;35.05
68141;BME280;54941;52.220;104.306;2024-03-23T04:30:32;96612.97;;;0.63;36.45
68141;BME280;54941;52.220;104.306;2024-03-23T04:32:59;96613.47;;;0.07;34.59
68141;BME280;54941;52.220;104.306;2024-03-23T04:35:25;96603.28;;;0.99;34.93
68141;BME280;54941;52.220;104.306;2024-03-23T04:37:51;96615.00;;;0.35;35.99
68141;BME280;54941;52.220;104.306;2024-03-23T04:40:19;96597.81;;;1.31;34.69
68141;BME280;54941;52.220;104.306;2024-03-23T04:42:45;96594.41;;;0.88;33.49
68141;BME280;54941;52.220;104.306;2024-03-23T04:45:12;96598.34;;;-0.47;35.66
68141;BME280;54941;52.220;104.306;2024-03-23T04:47:38;96574.81;;;0.21;35.62
68141;BME280;54941;52.220;104.306;2024-03-23T04:50:05;96573.59;;;-0.34;35.95
68141;BME280;54941;52.220;104.306;2024-03-23T04:52:31;96570.59;;;-0.13;35.92
68141;BME280;54941;52.220;104.306;2024-03-23T04:54:57;96579.69;;;-0.32;36.32
68141;BME280;54941;52.220;104.306;2024-03-23T04:57:25;96573.16;;;-0.85;36.44
68141;BME280;54941;52.220;104.306;2024-03-23T04:59:51;96562.84;;;-0.12;36.57
68141;BME280;54941;52.220;104.306;2024-03-23T05:02:18;96557.41;;;0.17;35.29
68141;BME280;54941;52.220;104.306;2024-03-23T05:04:44;96554.84;;;-0.21;36.67
68141;BME280;54941;52.220;104.306;2024-03-23T05:07:10;96552.88;;;-0.31;35.83
68141;BME280;54941;52.220;104.306;2024-03-23T05:09:37;96551.16;;;0.07;35.31
68141;BME280;54941;52.220;104.306;2024-03-23T05:12:03;96554.31;;;0.35;35.36
68141;BME280;54941;52.220;104.306;2024-03-23T05:14:31;96559.19;;;-0.21;35.31
68141;BME280;54941;52.220;104.306;2024-03-23T05:16:57;96556.09;;;-0.41;35.48
68141;BME280;54941;52.220;104.306;2024-03-23T05:19:23;96553.22;;;-0.16;39.07
68141;BME280;54941;52.220;104.306;2024-03-23T05:21:50;96547.84;;;-0.23;37.23
68141;BME280;54941;52.220;104.306;2024-03-23T05:24:16;96534.22;;;0.24;35.37
68141;BME280;54941;52.220;104.306;2024-03-23T05:26:42;96540.06;;;-0.23;35.38
68141;BME280;54941;52.220;104.306;2024-03-23T05:29:09;96534.56;;;0.01;34.13
68141;BME280;54941;52.220;104.306;2024-03-23T05:31:36;96523.34;;;0.02;35.57
68141;BME280;54941;52.220;104.306;2024-03-23T05:34:03;96532.78;;;-0.01;35.61
68141;BME280;54941;52.220;104.306;2024-03-23T05:36:29;96529.44;;;0.04;35.17
68141;BME280;54941;52.220;104.306;2024-03-23T05:38:56;96537.34;;;-0.30;34.96
68141;BME280;54941;52.220;104.306;2024-03-23T05:41:22;96533.28;;;-0.18;32.70
68141;BME280;54941;52.220;104.306;2024-03-23T05:43:48;96531.13;;;0.02;33.05
68141;BME280;54941;52.220;104.306;2024-03-23T05:46:14;96523.59;;;0.14;31.94
68141;BME280;54941;52.220;104.306;2024-03-23T05:48:42;96519.91;;;0.46;32.53
68141;BME280;54941;52.220;104.306;2024-03-23T05:51:09;96515.56;;;0.45;33.03
68141;BME280;54941;52.220;104.306;2024-03-23T05:53:35;96513.81;;;0.44;33.76
68141;BME280;54941;52.220;104.306;2024-03-23T05:56:01;96507.13;;;0.13;34.15
68141;BME280;54941;52.220;104.306;2024-03-23T05:58:28;96510.22;;;-0.44;34.69
68141;BME280;54941;52.220;104.306;2024-03-23T06:00:57;96505.66;;;-0.52;36.54
68141;BME280;54941;52.220;104.306;2024-03-23T06:03:23;96497.19;;;-0.06;36.44
68141;BME280;54941;52.220;104.306;2024-03-23T06:05:51;96494.25;;;0.19;34.00
68141;BME280;54941;52.220;104.306;2024-03-23T06:08:17;96492.78;;;0.79;33.62
68141;BME280;54941;52.220;104.306;2024-03-23T06:10:43;96482.78;;;0.53;33.53
68141;BME280;54941;52.220;104.306;2024-03-23T06:13:10;96485.50;;;0.58;33.44
68141;BME280;54941;52.220;104.306;2024-03-23T06:15:37;96479.56;;;0.65;32.99
68141;BME280;54941;52.220;104.306;2024-03-23T06:18:03;96475.09;;;0.14;34.26
68141;BME280;54941;52.220;104.306;2024-03-23T06:20:30;96477.38;;;0.41;34.93
68141;BME280;54941;52.220;104.306;2024-03-23T06:22:58;96471.88;;;0.26;35.96
68141;BME280;54941;52.220;104.306;2024-03-23T06:25:24;96474.59;;;0.34;35.08
68141;BME280;54941;52.220;104.306;2024-03-23T06:27:50;96467.03;;;0.01;34.38
68141;BME280;54941;52.220;104.306;2024-03-23T06:30:17;96463.84;;;0.14;34.55
68141;BME280;54941;52.220;104.306;2024-03-23T06:32:43;96455.50;;;0.30;34.89
68141;BME280;54941;52.220;104.306;2024-03-23T06:35:09;96454.31;;;0.13;34.25
68141;BME280;54941;52.220;104.306;2024-03-23T06:37:36;96449.97;;;0.58;34.30
68141;BME280;54941;52.220;104.306;2024-03-23T06:40:05;96449.34;;;0.72;34.09
68141;BME280;54941;52.220;104.306;2024-03-23T06:42:32;96445.56;;;0.54;33.85
68141;BME280;54941;52.220;104.306;2024-03-23T06:44:58;96437.13;;;0.68;34.00
68141;BME280;54941;52.220;104.306;2024-03-23T06:47:24;96436.00;;;0.52;33.98
68141;BME280;54941;52.220;104.306;2024-03-23T06:49:51;96439.84;;;0.27;35.02
68141;BME280;54941;52.220;104.306;2024-03-23T06:52:17;96432.34;;;0.44;35.23
68141;BME280;54941;52.220;104.306;2024-03-23T06:54:43;96432.97;;;0.31;34.55
68141;BME280;54941;52.220;104.306;2024-03-23T06:57:11;96425.13;;;0.27;35.99
68141;BME280;54941;52.220;104.306;2024-03-23T06:59:37;96421.50;;;0.66;33.62
68141;BME280;54941;52.220;104.306;2024-03-23T07:02:04;96420.38;;;0.52;33.92
68141;BME280;54941;52.220;104.306;2024-03-23T07:04:30;96414.28;;;0.48;34.08
68141;BME280;54941;52.220;104.306;2024-03-23T07:06:56;96408.66;;;1.30;33.59
68141;BME280;54941;52.220;104.306;2024-03-23T07:09:23;96406.81;;;1.23;32.81
68141;BME280;54941;52.220;104.306;2024-03-23T07:11:49;96412.75;;;1.14;33.24
68141;BME280;54941;52.220;104.306;2024-03-23T07:14:17;96412.63;;;1.05;33.87
68141;BME280;54941;52.220;104.306;2024-03-23T07:16:43;96393.66;;;1.13;32.95
68141;BME280;54941;52.220;104.306;2024-03-23T07:19:09;96394.44;;;1.06;33.11
68141;BME280;54941;52.220;104.306;2024-03-23T07:21:36;96392.19;;;1.31;32.96
68141;BME280;54941;52.220;104.306;2024-03-23T07:24:02;96390.59;;;0.83;33.46
68141;BME280;54941;52.220;104.306;2024-03-23T07:26:28;96382.38;;;1.13;33.30
68141;BME280;54941;52.220;104.306;2024-03-23T07:28:55;96378.66;;;1.55;32.82
68141;BME280;54941;52.220;104.306;2024-03-23T07:31:22;96376.59;;;1.32;33.50
68141;BME280;54941;52.220;104.306;2024-03-23T07:33:49;96381.72;;;1.26;32.42
68141;BME280;54941;52.220;104.306;2024-03-23T07:36:15;96370.97;;;1.03;32.84
68141;BME280;54941;52.220;104.306;2024-03-23T07:38:42;96383.13;;;1.63;32.63
68141;BME280;54941;52.220;104.306;2024-03-23T07:41:09;96376.91;;;1.54;32.16
68141;BME280;54941;52.220;104.306;2024-03-23T07:43:36;96362.53;;;1.20;32.13
68141;BME280;54941;52.220;104.306;2024-03-23T07:46:03;96363.00;;;1.53;32.47
68141;BME280;54941;52.220;104.306;2024-03-23T07:48:31;96353.81;;;1.83;31.80
68141;BME280;54941;52.220;104.306;2024-03-23T07:50:59;96350.44;;;1.90;31.36
68141;BME280;54941;52.220;104.306;2024-03-23T07:53:26;96350.53;;;1.97;31.09
68141;BME280;54941;52.220;104.306;2024-03-23T07:55:56;96345.28;;;1.96;30.74
68141;BME280;54941;52.220;104.306;2024-03-23T07:58:22;96341.47;;;1.66;30.79
68141;BME280;54941;52.220;104.306;2024-03-23T08:00:49;96331.25;;;1.82;30.81
68141;BME280;54941;52.220;104.306;2024-03-23T08:03:15;96332.31;;;1.99;30.34
68141;BME280;54941;52.220;104.306;2024-03-23T08:05:43;96324.66;;;2.17;30.21
68141;BME280;54941;52.220;104.306;2024-03-23T08:08:09;96316.00;;;2.18;29.88
68141;BME280;54941;52.220;104.306;2024-03-23T08:10:36;96322.94;;;2.16;30.14
68141;BME280;54941;52.220;104.306;2024-03-23T08:13:02;96325.53;;;2.18;30.01
68141;BME280;54941;52.220;104.306;2024-03-23T08:15:30;96316.97;;;2.31;29.80
68141;BME280;54941;52.220;104.306;2024-03-23T08:17:56;96308.38;;;2.41;30.20
68141;BME280;54941;52.220;104.306;2024-03-23T08:20:23;96305.06;;;2.56;28.37
68141;BME280;54941;52.220;104.306;2024-03-23T08:22:50;96300.63;;;2.44;28.64
68141;BME280;54941;52.220;104.306;2024-03-23T08:25:17;96295.50;;;2.55;27.84
68141;BME280;54941;52.220;104.306;2024-03-23T08:27:44;96298.31;;;2.81;27.55
68141;BME280;54941;52.220;104.306;2024-03-23T08:30:11;96294.84;;;2.85;27.72
68141;BME280;54941;52.220;104.306;2024-03-23T08:32:37;96296.63;;;2.90;26.74
68141;BME280;54941;52.220;104.306;2024-03-23T08:35:04;96293.09;;;2.87;26.31
68141;BME280;54941;52.220;104.306;2024-03-23T08:37:31;96287.78;;;2.69;27.34
68141;BME280;54941;52.220;104.306;2024-03-23T08:39:59;96289.50;;;2.67;26.91
68141;BME280;54941;52.220;104.306;2024-03-23T08:42:25;96283.69;;;3.10;26.07
68141;BME280;54941;52.220;104.306;2024-03-23T08:44:51;96274.84;;;2.87;25.84
68141;BME280;54941;52.220;104.306;2024-03-23T08:47:17;96276.47;;;2.70;26.42
68141;BME280;54941;52.220;104.306;2024-03-23T08:49:44;96273.16;;;2.90;26.84
68141;BME280;54941;52.220;104.306;2024-03-23T08:52:11;96271.50;;;3.05;25.72
68141;BME280;54941;52.220;104.306;2024-03-23T08:54:37;96269.69;;;2.98;25.48
68141;BME280;54941;52.220;104.306;2024-03-23T08:57:05;96273.09;;;2.87;25.12
68141;BME280;54941;52.220;104.306;2024-03-23T08:59:32;96275.69;;;2.84;26.21
68141;BME280;54941;52.220;104.306;2024-03-23T09:01:58;96260.09;;;2.92;25.32
68141;BME280;54941;52.220;104.306;2024-03-23T09:04:24;96267.78;;;2.72;25.62
68141;BME280;54941;52.220;104.306;2024-03-23T09:06:51;96270.31;;;2.58;25.99
68141;BME280;54941;52.220;104.306;2024-03-23T09:09:17;96264.22;;;2.59;26.29
68141;BME280;54941;52.220;104.306;2024-03-23T09:11:44;96265.94;;;2.56;25.31
68141;BME280;54941;52.220;104.306;2024-03-23T09:14:11;96265.00;;;2.49;24.95
68141;BME280;54941;52.220;104.306;2024-03-23T09:16:38;96272.84;;;2.51;25.22
68141;BME280;54941;52.220;104.306;2024-03-23T09:19:04;96260.66;;;2.47;25.03
68141;BME280;54941;52.220;104.306;2024-03-23T09:21:30;96262.31;;;2.37;25.31
68141;BME280;54941;52.220;104.306;2024-03-23T09:23:56;96268.19;;;2.16;26.27
68141;BME280;54941;52.220;104.306;2024-03-23T09:26:23;96254.47;;;2.32;26.26
68141;BME280;54941;52.220;104.306;2024-03-23T09:28:49;96252.81;;;2.45;27.08
68141;BME280;54941;52.220;104.306;2024-03-23T09:31:17;96252.00;;;2.51;26.86
68141;BME280;54941;52.220;104.306;2024-03-23T09:33:43;96245.97;;;2.58;26.36
68141;BME280;54941;52.220;104.306;2024-03-23T09:36:10;96242.44;;;2.51;26.54
68141;BME280;54941;52.220;104.306;2024-03-23T09:38:36;96240.66;;;2.47;26.91
68141;BME280;54941;52.220;104.306;2024-03-23T09:41:07;96242.44;;;2.53;27.49
68141;BME280;54941;52.220;104.306;2024-03-23T09:43:33;96246.84;;;2.63;26.85
68141;BME280;54941;52.220;104.306;2024-03-23T09:46:00;96246.78;;;2.54;27.11
68141;BME280;54941;52.220;104.306;2024-03-23T09:48:28;96237.22;;;2.53;27.01
68141;BME280;54941;52.220;104.306;2024-03-23T09:50:55;96245.03;;;2.53;26.53
68141;BME280;54941;52.220;104.306;2024-03-23T09:53:22;96250.25;;;2.54;27.14
68141;BME280;54941;52.220;104.306;2024-03-23T09:55:49;96244.88;;;2.31;27.71
68141;BME280;54941;52.220;104.306;2024-03-23T09:58:16;96241.25;;;2.11;27.85
68141;BME280;54941;52.220;104.306;2024-03-23T10:00:43;96236.13;;;2.20;27.92
68141;BME280;54941;52.220;104.306;2024-03-23T10:03:09;96243.84;;;2.13;27.72
68141;BME280;54941;52.220;104.306;2024-03-23T10:05:37;96242.91;;;2.06;27.57
68141;BME280;54941;52.220;104.306;2024-03-23T10:08:17;96244.84;;;2.28;26.96
68141;BME280;54941;52.220;104.306;2024-03-23T10:10:45;96239.56;;;2.19;26.92
68141;BME280;54941;52.220;104.306;2024-03-23T10:13:23;96237.97;;;2.35;26.26
68141;BME280;54941;52.220;104.306;2024-03-23T10:15:55;96236.13;;;2.20;26.87
68141;BME280;54941;52.220;104.306;2024-03-23T10:18:21;96238.63;;;2.10;26.59
68141;BME280;54941;52.220;104.306;2024-03-23T10:20:51;96239.28;;;1.86;26.74
68141;BME280;54941;52.220;104.306;2024-03-23T10:23:18;96234.97;;;1.94;26.81
68141;BME280;54941;52.220;104.306;2024-03-23T10:25:44;96229.84;;;2.01;26.78
68141;BME280;54941;52.220;104.306;2024-03-23T10:28:10;96231.59;;;1.99;26.96
68141;BME280;54941;52.220;104.306;2024-03-23T10:30:37;96238.97;;;1.61;26.70
68141;BME280;54941;52.220;104.306;2024-03-23T10:33:10;96222.63;;;1.73;27.43
68141;BME280;54941;52.220;104.306;2024-03-23T10:35:38;96221.00;;;1.84;26.88
68141;BME280;54941;52.220;104.306;2024-03-23T10:38:07;96226.09;;;1.72;26.77
68141;BME280;54941;52.220;104.306;2024-03-23T10:40:34;96220.13;;;1.84;26.92
68141;BME280;54941;52.220;104.306;2024-03-23T10:43:03;96222.81;;;1.93;27.10
68141;BME280;54941;52.220;104.306;2024-03-23T10:45:29;96226.69;;;1.48;28.34
68141;BME280;54941;52.220;104.306;2024-03-23T10:47:56;96235.91;;;1.19;29.05
68141;BME280;54941;52.220;104.306;2024-03-23T10:50:22;96231.59;;;1.21;29.42
68141;BME280;54941;52.220;104.306;2024-03-23T10:52:49;96233.09;;;1.03;29.92
68141;BME280;54941;52.220;104.306;2024-03-23T10:55:21;96230.31;;;0.91;30.24
68141;BME280;54941;52.220;104.306;2024-03-23T10:57:50;96231.16;;;0.87;31.98
68141;BME280;54941;52.220;104.306;2024-03-23T11:00:18;96228.41;;;0.76;32.46
68141;BME280;54941;52.220;104.306;2024-03-23T11:02:45;96228.34;;;0.72;31.82
68141;BME280;54941;52.220;104.306;2024-03-23T11:05:30;96227.53;;;0.77;30.55
68141;BME280;54941;52.220;104.306;2024-03-23T11:07:56;96223.91;;;0.65;32.82
68141;BME280;54941;52.220;104.306;2024-03-23T11:10:28;96233.94;;;0.40;34.10
68141;BME280;54941;52.220;104.306;2024-03-23T11:12:55;96225.06;;;0.26;34.93
68141;BME280;54941;52.220;104.306;2024-03-23T11:15:22;96236.81;;;0.03;35.22
68141;BME280;54941;52.220;104.306;2024-03-23T11:18:08;96234.19;;;0.01;34.32
68141;BME280;54941;52.220;104.306;2024-03-23T11:20:36;96228.88;;;-0.05;33.94
68141;BME280;54941;52.220;104.306;2024-03-23T11:23:02;96235.78;;;-0.06;35.19
68141;BME280;54941;52.220;104.306;2024-03-23T11:25:30;96243.31;;;-0.21;35.54
68141;BME280;54941;52.220;104.306;2024-03-23T11:27:57;96241.34;;;-0.34;38.33
68141;BME280;54941;52.220;104.306;2024-03-23T11:30:25;96248.13;;;-0.41;38.89
68141;BME280;54941;52.220;104.306;2024-03-23T11:32:54;96246.06;;;-0.59;39.41
68141;BME280;54941;52.220;104.306;2024-03-23T11:35:29;96257.13;;;-0.69;37.25
68141;BME280;54941;52.220;104.306;2024-03-23T11:38:06;96257.94;;;-0.70;36.83
68141;BME280;54941;52.220;104.306;2024-03-23T11:40:35;96262.22;;;-0.73;36.61
68141;BME280;54941;52.220;104.306;2024-03-23T11:43:02;96263.00;;;-0.77;35.75
68141;BME280;54941;52.220;104.306;2024-03-23T11:45:31;96267.34;;;-0.76;35.36
68141;BME280;54941;52.220;104.306;2024-03-23T11:48:06;96268.03;;;-0.85;37.91
68141;BME280;54941;52.220;104.306;2024-03-23T11:50:33;96266.16;;;-0.92;43.34
68141;BME280;54941;52.220;104.306;2024-03-23T11:53:11;96269.44;;;-1.01;40.49
68141;BME280;54941;52.220;104.306;2024-03-23T11:55:50;96268.88;;;-0.86;40.50
68141;BME280;54941;52.220;104.306;2024-03-23T11:58:17;96264.56;;;-0.85;41.59
68141;BME280;54941;52.220;104.306;2024-03-23T12:00:50;96268.59;;;-0.98;44.36
68141;BME280;54941;52.220;104.306;2024-03-23T12:03:17;96269.41;;;-1.02;42.55
68141;BME280;54941;52.220;104.306;2024-03-23T12:05:48;96273.72;;;-1.03;41.19
68141;BME280;54941;52.220;104.306;2024-03-23T12:08:21;96271.53;;;-1.24;42.10
68141;BME280;54941;52.220;104.306;2024-03-23T12:10:50;96281.91;;;-1.22;42.27
68141;BME280;54941;52.220;104.306;2024-03-23T12:13:18;96275.97;;;-1.17;39.04
68141;BME280;54941;52.220;104.306;2024-03-23T12:15:45;96275.06;;;-1.19;39.31
68141;BME280;54941;52.220;104.306;2024-03-23T12:18:11;96278.56;;;-1.17;40.47
68141;BME280;54941;52.220;104.306;2024-03-23T12:20:38;96281.38;;;-1.07;41.11
68141;BME280;54941;52.220;104.306;2024-03-23T12:23:06;96272.75;;;-1.06;41.95
68141;BME280;54941;52.220;104.306;2024-03-23T12:25:32;96283.00;;;-1.12;41.58
68141;BME280;54941;52.220;104.306;2024-03-23T12:28:01;96287.19;;;-1.18;43.94
68141;BME280;54941;52.220;104.306;2024-03-23T12:30:27;96280.00;;;-1.31;42.62
68141;BME280;54941;52.220;104.306;2024-03-23T12:32:54;96283.22;;;-1.39;42.24
68141;BME280;54941;52.220;104.306;2024-03-23T12:35:20;96279.91;;;-1.35;40.18
68141;BME280;54941;52.220;104.306;2024-03-23T12:37:46;96281.72;;;-1.30;40.52
68141;BME280;54941;52.220;104.306;2024-03-23T12:40:13;96285.94;;;-1.35;38.76
68141;BME280;54941;52.220;104.306;2024-03-23T12:42:39;96286.81;;;-1.34;40.14
68141;BME280;54941;52.220;104.306;2024-03-23T12:45:08;96282.22;;;-1.48;39.86
68141;BME280;54941;52.220;104.306;2024-03-23T12:47:34;96293.41;;;-1.49;40.29
68141;BME280;54941;52.220;104.306;2024-03-23T12:50:01;96293.31;;;-1.52;42.11
68141;BME280;54941;52.220;104.306;2024-03-23T12:52:27;96303.03;;;-1.43;40.30
68141;BME280;54941;52.220;104.306;2024-03-23T12:54:54;96299.44;;;-1.12;37.09
68141;BME280;54941;52.220;104.306;2024-03-23T12:57:20;96299.63;;;-1.03;36.77
68141;BME280;54941;52.220;104.306;2024-03-23T12:59:46;96296.78;;;-0.74;35.63
68141;BME280;54941;52.220;104.306;2024-03-23T13:02:14;96298.47;;;-0.76;35.27
68141;BME280;54941;52.220;104.306;2024-03-23T13:04:40;96302.25;;;-0.61;35.06
68141;BME280;54941;52.220;104.306;2024-03-23T13:07:06;96302.38;;;-0.54;35.09
68141;BME280;54941;52.220;104.306;2024-03-23T13:09:33;96302.03;;;-0.70;36.42
68141;BME280;54941;52.220;104.306;2024-03-23T13:11:59;96313.25;;;-0.71;36.95
68141;BME280;54941;52.220;104.306;2024-03-23T13:14:25;96315.50;;;-0.88;37.95
68141;BME280;54941;52.220;104.306;2024-03-23T13:16:51;96307.69;;;-0.91;38.26
68141;BME280;54941;52.220;104.306;2024-03-23T13:19:19;96312.03;;;-0.90;38.50
68141;BME280;54941;52.220;104.306;2024-03-23T13:21:45;96312.00;;;-0.91;38.65
68141;BME280;54941;52.220;104.306;2024-03-23T13:24:12;96311.16;;;-0.90;38.77
68141;BME280;54941;52.220;104.306;2024-03-23T13:26:38;96317.22;;;-0.88;39.17
68141;BME280;54941;52.220;104.306;2024-03-23T13:29:04;96321.25;;;-1.02;39.64
68141;BME280;54941;52.220;104.306;2024-03-23T13:31:30;96316.81;;;-1.06;40.33
68141;BME280;54941;52.220;104.306;2024-03-23T13:33:57;96314.38;;;-1.00;40.02
68141;BME280;54941;52.220;104.306;2024-03-23T13:36:24;96317.59;;;-1.10;39.87
68141;BME280;54941;52.220;104.306;2024-03-23T13:38:51;96317.66;;;-1.07;40.39
68141;BME280;54941;52.220;104.306;2024-03-23T13:41:17;96317.72;;;-1.04;40.28